Time;durP1;ratioP1;P1;durP2;ratioP2;P2;SDS_P1;SDS_P2;PMS_P1;PMS_P2;Temp;Humidity;BMP_temperature;BMP_pressure;BME280_temperature;BME280_humidity;BME280_pressure;Samples;Min_cycle;Max_cycle;Signal;HPM_P1;HPM_P2
2023/12/09 00:01:51;;;;;;;46.53;25.95;;;5.80;73.70;;;;;;4959866;29;20078;-65
2023/12/09 00:04:17;;;;;;;44.55;26.40;;;5.80;73.80;;;;;;4960415;29;20047;-65
2023/12/09 00:06:49;;;;;;;43.03;25.98;;;5.70;74.00;;;;;;4960168;29;20038;-66
2023/12/09 00:09:18;;;;;;;40.53;23.80;;;5.70;73.80;;;;;;4960124;28;20062;-66
2023/12/09 00:11:44;;;;;;;46.00;25.92;;;5.70;74.10;;;;;;4960104;29;20027;-65
2023/12/09 00:14:10;;;;;;;42.67;25.50;;;5.60;74.10;;;;;;4960039;29;20031;-65
2023/12/09 00:16:36;;;;;;;40.80;23.55;;;5.60;74.20;;;;;;4959757;29;20034;-65
2023/12/09 00:19:02;;;;;;;45.97;27.25;;;5.50;74.10;;;;;;4959841;28;20385;-65
2023/12/09 00:21:28;;;;;;;43.08;24.83;;;5.60;74.30;;;;;;4960181;29;20107;-65
2023/12/09 00:23:54;;;;;;;42.65;24.67;;;5.50;74.20;;;;;;4959838;29;20321;-65
2023/12/09 00:26:20;;;;;;;43.28;25.33;;;5.50;74.10;;;;;;4959486;29;20027;-65
2023/12/09 00:28:46;;;;;;;47.33;26.23;;;5.50;74.30;;;;;;4959887;28;20062;-65
2023/12/09 00:31:13;;;;;;;43.15;23.58;;;5.50;74.20;;;;;;4959190;29;20051;-65
2023/12/09 00:33:40;;;;;;;41.42;23.23;;;5.50;74.10;;;;;;4959668;29;20015;-65
2023/12/09 00:36:06;;;;;;;45.97;25.58;;;5.50;74.10;;;;;;4959396;29;20034;-65
2023/12/09 00:38:32;;;;;;;42.95;24.63;;;5.40;74.00;;;;;;4958824;28;20030;-65
2023/12/09 00:40:58;;;;;;;49.75;26.67;;;5.40;73.90;;;;;;4959244;28;20023;-65
2023/12/09 00:43:24;;;;;;;39.28;24.23;;;5.50;73.80;;;;;;4959504;29;20349;-66
2023/12/09 00:45:50;;;;;;;47.45;27.85;;;5.40;73.80;;;;;;4959157;29;20027;-65
2023/12/09 00:48:16;;;;;;;55.28;28.55;;;5.40;74.00;;;;;;4959174;29;20023;-65
2023/12/09 00:50:42;;;;;;;44.42;25.15;;;5.40;74.00;;;;;;4959182;28;20086;-65
2023/12/09 00:53:08;;;;;;;44.78;25.38;;;5.40;74.10;;;;;;4942124;29;20110;-66
2023/12/09 00:55:34;;;;;;;47.08;26.98;;;5.40;73.90;;;;;;4959259;29;20051;-65
2023/12/09 00:58:00;;;;;;;43.22;24.92;;;5.40;73.90;;;;;;4959228;29;20356;-65
2023/12/09 01:00:26;;;;;;;43.80;25.40;;;5.40;74.10;;;;;;4959357;28;20039;-65
2023/12/09 01:02:52;;;;;;;46.88;26.52;;;5.40;74.00;;;;;;4958867;29;20110;-65
2023/12/09 01:05:18;;;;;;;43.13;24.55;;;5.30;74.10;;;;;;4959114;29;20078;-65
2023/12/09 01:07:44;;;;;;;47.17;27.65;;;5.40;74.20;;;;;;4959324;29;20031;-65
2023/12/09 01:10:10;;;;;;;49.88;27.77;;;5.30;74.30;;;;;;4958797;28;20078;-65
2023/12/09 01:12:36;;;;;;;51.15;27.33;;;5.30;74.30;;;;;;4958703;29;20035;-66
2023/12/09 01:15:02;;;;;;;47.55;26.80;;;5.40;74.30;;;;;;4958923;29;20023;-66
2023/12/09 01:17:28;;;;;;;45.50;26.35;;;5.30;74.10;;;;;;4958856;29;20322;-65
2023/12/09 01:19:54;;;;;;;47.42;27.25;;;5.30;74.00;;;;;;4959020;28;20082;-65
2023/12/09 01:22:20;;;;;;;51.40;29.45;;;5.30;74.10;;;;;;4958489;29;20027;-65
2023/12/09 01:24:47;;;;;;;50.00;29.02;;;5.30;74.20;;;;;;4958509;29;20023;-65
2023/12/09 01:27:13;;;;;;;49.45;26.98;;;5.30;74.30;;;;;;4958717;29;20030;-65
2023/12/09 01:29:39;;;;;;;46.10;24.83;;;5.30;74.30;;;;;;4957978;28;20054;-65
2023/12/09 01:32:05;;;;;;;53.28;30.55;;;5.30;74.20;;;;;;4958316;29;20095;-65
2023/12/09 01:34:32;;;;;;;49.97;28.70;;;5.30;74.60;;;;;;4958854;29;20075;-65
2023/12/09 01:36:58;;;;;;;54.00;30.63;;;5.30;74.50;;;;;;4958482;29;20446;-66
2023/12/09 01:39:24;;;;;;;53.08;28.88;;;5.30;74.40;;;;;;4958164;28;20139;-65
2023/12/09 01:41:50;;;;;;;45.75;28.08;;;5.30;74.50;;;;;;4958147;29;20158;-65
2023/12/09 01:44:16;;;;;;;49.40;27.30;;;5.20;74.50;;;;;;4958607;29;20027;-65
2023/12/09 01:46:42;;;;;;;46.30;27.63;;;5.30;74.20;;;;;;4958316;29;20042;-66
2023/12/09 01:49:08;;;;;;;53.05;28.92;;;5.30;74.40;;;;;;4958118;28;20038;-65
2023/12/09 01:51:35;;;;;;;47.08;29.13;;;5.30;74.30;;;;;;4957973;28;20037;-65
2023/12/09 01:54:01;;;;;;;44.60;25.80;;;5.20;74.30;;;;;;4958188;29;20042;-66
2023/12/09 01:56:27;;;;;;;43.28;24.80;;;5.20;74.20;;;;;;5224510;23;20051;-74
2023/12/09 01:58:54;;;;;;;50.28;28.27;;;5.20;74.20;;;;;;4957917;29;20106;-74
2023/12/09 02:01:20;;;;;;;48.75;28.70;;;5.20;74.30;;;;;;4958119;29;20039;-74
2023/12/09 02:03:45;;;;;;;50.55;29.08;;;5.20;74.30;;;;;;4957817;29;20078;-74
2023/12/09 02:06:11;;;;;;;46.80;27.88;;;5.20;74.00;;;;;;4957701;28;20099;-74
2023/12/09 02:08:39;;;;;;;47.10;26.83;;;5.10;73.90;;;;;;4957634;29;20372;-74
2023/12/09 02:11:14;;;;;;;43.13;25.65;;;5.10;74.10;;;;;;4941111;29;20057;-74
2023/12/09 02:13:56;;;;;;;44.42;25.60;;;5.10;74.10;;;;;;4957882;29;20074;-74
2023/12/09 02:16:28;;;;;;;43.13;25.67;;;5.00;74.10;;;;;;4957699;28;20066;-74
2023/12/09 02:18:57;;;;;;;43.90;25.98;;;5.00;74.20;;;;;;4957862;29;20487;-74
2023/12/09 02:21:23;;;;;;;53.20;27.30;;;4.90;74.30;;;;;;4957684;29;20058;-74
2023/12/09 02:23:48;;;;;;;44.33;23.65;;;4.90;74.60;;;;;;4957451;29;20027;-74
2023/12/09 02:26:20;;;;;;;40.03;23.35;;;4.90;74.50;;;;;;4957419;28;20035;-74
2023/12/09 02:28:53;;;;;;;40.15;24.55;;;4.90;74.40;;;;;;4957911;29;20448;-74
2023/12/09 02:31:26;;;;;;;42.42;25.90;;;4.90;74.50;;;;;;4957724;29;20019;-74
2023/12/09 02:33:53;;;;;;;50.65;28.73;;;4.90;74.20;;;;;;4957617;29;20463;-74
2023/12/09 02:36:21;;;;;;;50.80;29.27;;;4.80;74.40;;;;;;4957173;28;20051;-74
2023/12/09 02:38:48;;;;;;;47.92;27.98;;;4.80;74.20;;;;;;4957832;29;20028;-74
2023/12/09 02:41:16;;;;;;;49.92;27.60;;;4.70;74.30;;;;;;4957279;29;20110;-74
2023/12/09 02:43:45;;;;;;;44.55;25.35;;;4.70;74.60;;;;;;4957730;29;20030;-74
2023/12/09 02:46:13;;;;;;;48.53;27.42;;;4.70;74.70;;;;;;4957440;28;20103;-74
2023/12/09 02:48:39;;;;;;;39.70;24.40;;;4.70;74.80;;;;;;4940195;29;20106;-74
2023/12/09 02:51:08;;;;;;;46.08;25.27;;;4.70;74.70;;;;;;4957176;29;20148;-74
2023/12/09 02:53:35;;;;;;;48.95;28.10;;;4.70;74.90;;;;;;4957376;29;20023;-74
2023/12/09 02:56:01;;;;;;;44.58;25.67;;;4.70;74.80;;;;;;4957042;28;20067;-74
2023/12/09 02:58:26;;;;;;;50.20;27.70;;;4.70;74.70;;;;;;4957407;29;20027;-74
2023/12/09 03:00:52;;;;;;;48.85;28.15;;;4.70;74.90;;;;;;4957615;29;20038;-74
2023/12/09 03:03:18;;;;;;;53.53;31.48;;;4.70;74.80;;;;;;4943042;29;20114;-74
2023/12/09 03:05:44;;;;;;;47.55;26.52;;;4.70;74.50;;;;;;4960937;28;20023;-74
2023/12/09 03:08:11;;;;;;;43.65;27.23;;;4.60;74.70;;;;;;4961467;29;20046;-74
2023/12/09 03:10:36;;;;;;;43.72;26.55;;;4.60;74.90;;;;;;4960870;29;20031;-74
2023/12/09 03:13:02;;;;;;;48.00;26.77;;;4.70;74.90;;;;;;4961122;29;20019;-74
2023/12/09 03:15:28;;;;;;;45.65;26.30;;;4.70;74.90;;;;;;4961304;28;20094;-74
2023/12/09 03:17:54;;;;;;;46.30;27.73;;;4.70;75.00;;;;;;4960727;29;20035;-74
2023/12/09 03:20:20;;;;;;;48.15;26.05;;;4.80;74.90;;;;;;4961272;29;20027;-74
2023/12/09 03:22:48;;;;;;;48.53;28.25;;;4.70;74.90;;;;;;4960947;29;20042;-74
2023/12/09 03:25:14;;;;;;;46.00;26.23;;;4.70;74.70;;;;;;4961139;28;20136;-74
2023/12/09 03:27:40;;;;;;;56.78;31.95;;;4.70;74.90;;;;;;4960627;29;20031;-74
2023/12/09 03:30:07;;;;;;;50.45;29.15;;;4.70;75.00;;;;;;4960995;29;20353;-74
2023/12/09 03:32:33;;;;;;;46.72;26.63;;;4.70;75.10;;;;;;4960534;29;20019;-74
2023/12/09 03:34:59;;;;;;;50.42;28.85;;;4.80;74.90;;;;;;4960397;28;20035;-74
2023/12/09 03:37:26;;;;;;;47.33;28.20;;;4.70;74.80;;;;;;4960675;29;20023;-74
2023/12/09 03:39:52;;;;;;;50.55;30.13;;;4.80;74.70;;;;;;4961104;29;20031;-74
2023/12/09 03:42:18;;;;;;;52.15;28.05;;;4.70;74.60;;;;;;4960320;29;20042;-74
2023/12/09 03:44:44;;;;;;;50.55;27.92;;;4.60;74.70;;;;;;4960601;29;20059;-74
2023/12/09 03:47:10;;;;;;;49.83;28.17;;;4.60;74.90;;;;;;4960250;28;20023;-73
2023/12/09 03:49:35;;;;;;;42.67;27.88;;;4.60;75.20;;;;;;4960183;29;20051;-74
2023/12/09 03:52:02;;;;;;;47.22;27.35;;;4.60;75.20;;;;;;4960228;29;20023;-74
2023/12/09 03:54:27;;;;;;;44.33;24.77;;;4.60;75.10;;;;;;4959995;29;20023;-73
2023/12/09 03:56:53;;;;;;;43.83;26.52;;;4.60;75.20;;;;;;4959880;28;20134;-74
2023/12/09 03:59:19;;;;;;;43.60;26.42;;;4.70;75.30;;;;;;4960070;29;20027;-74
2023/12/09 04:01:49;;;;;;;43.92;26.65;;;4.60;74.90;;;;;;4960003;29;20074;-74
2023/12/09 04:04:16;;;;;;;42.90;26.27;;;4.70;74.80;;;;;;4960242;29;20023;-74
2023/12/09 04:06:42;;;;;;;51.78;28.00;;;4.60;75.00;;;;;;4959861;28;20031;-74
2023/12/09 04:09:09;;;;;;;41.50;25.25;;;4.60;75.20;;;;;;4960032;29;20027;-74
2023/12/09 04:11:36;;;;;;;43.90;26.10;;;4.60;75.10;;;;;;4960377;29;20039;-74
2023/12/09 04:14:02;;;;;;;42.97;25.98;;;4.60;75.30;;;;;;4958906;28;20456;-73
2023/12/09 04:16:28;;;;;;;46.70;26.95;;;4.60;75.20;;;;;;4959647;28;20031;-74
2023/12/09 04:18:55;;;;;;;43.60;26.50;;;4.60;75.10;;;;;;4959732;29;20027;-74
2023/12/09 04:21:21;;;;;;;49.55;27.27;;;4.60;75.30;;;;;;4959670;29;20054;-74
2023/12/09 04:23:47;;;;;;;42.35;27.33;;;4.60;75.40;;;;;;4959567;29;20491;-74
2023/12/09 04:26:13;;;;;;;45.65;27.65;;;4.60;75.20;;;;;;4959537;28;20031;-74
2023/12/09 04:28:40;;;;;;;38.15;23.27;;;4.60;75.30;;;;;;4960000;29;20452;-74
2023/12/09 04:31:06;;;;;;;44.03;26.50;;;4.60;75.20;;;;;;4959945;29;20050;-74
2023/12/09 04:33:32;;;;;;;38.65;22.77;;;4.60;75.40;;;;;;4959461;29;20023;-74
2023/12/09 04:35:59;;;;;;;43.25;24.85;;;4.60;75.30;;;;;;4959357;28;20035;-74
2023/12/09 04:38:25;;;;;;;43.45;25.55;;;4.60;75.50;;;;;;4959254;29;20058;-74
2023/12/09 04:40:51;;;;;;;42.13;25.23;;;4.60;75.60;;;;;;4959546;29;20062;-74
2023/12/09 04:43:16;;;;;;;47.42;27.35;;;4.60;75.70;;;;;;4959837;29;20027;-74
2023/12/09 04:45:43;;;;;;;42.17;25.60;;;4.60;75.60;;;;;;4959388;28;20488;-74
2023/12/09 04:48:08;;;;;;;41.00;24.70;;;4.60;75.60;;;;;;4959163;29;20441;-74
2023/12/09 04:50:35;;;;;;;46.00;26.75;;;4.60;75.70;;;;;;4959052;29;20038;-74
2023/12/09 04:53:01;;;;;;;43.17;24.77;;;4.60;75.50;;;;;;4959344;29;20061;-74
2023/12/09 04:55:27;;;;;;;48.58;26.95;;;4.70;75.50;;;;;;4958978;28;20031;-74
2023/12/09 04:57:53;;;;;;;42.80;26.00;;;4.70;75.60;;;;;;4959274;29;20035;-74
2023/12/09 05:00:19;;;;;;;46.95;26.00;;;4.70;75.60;;;;;;4958898;29;20170;-74
2023/12/09 05:02:45;;;;;;;43.95;26.85;;;4.70;75.50;;;;;;4958901;29;20087;-74
2023/12/09 05:05:11;;;;;;;43.78;25.83;;;4.70;75.60;;;;;;4958765;28;20097;-74
2023/12/09 05:07:37;;;;;;;41.28;23.75;;;4.70;75.60;;;;;;4959325;29;20027;-74
2023/12/09 05:10:04;;;;;;;48.28;27.02;;;4.80;75.30;;;;;;4958973;29;20050;-74
2023/12/09 05:12:30;;;;;;;43.13;25.88;;;4.70;75.50;;;;;;4958678;29;20415;-73
2023/12/09 05:14:56;;;;;;;49.10;26.45;;;4.80;75.40;;;;;;4941790;29;20098;-74
2023/12/09 05:17:21;;;;;;;43.75;26.02;;;4.80;75.50;;;;;;4958570;28;20449;-74
2023/12/09 05:19:48;;;;;;;44.08;25.15;;;4.80;75.60;;;;;;4959092;29;20111;-74
2023/12/09 05:22:14;;;;;;;42.60;27.17;;;4.80;75.30;;;;;;4958812;29;20058;-74
2023/12/09 05:24:40;;;;;;;46.97;27.65;;;4.70;75.50;;;;;;4958419;28;20039;-74
2023/12/09 05:27:06;;;;;;;45.42;27.45;;;4.60;75.30;;;;;;4958448;28;20031;-74
2023/12/09 05:29:32;;;;;;;48.38;27.80;;;4.60;75.30;;;;;;4958582;29;20067;-74
2023/12/09 05:31:59;;;;;;;43.13;27.45;;;4.60;75.10;;;;;;4958866;29;20464;-74
2023/12/09 05:34:25;;;;;;;49.00;27.80;;;4.50;75.20;;;;;;4958229;29;20023;-74
2023/12/09 05:36:50;;;;;;;43.53;27.50;;;4.40;75.30;;;;;;4958472;28;20046;-74
2023/12/09 05:39:16;;;;;;;42.28;25.80;;;4.40;75.50;;;;;;4941342;29;20027;-74
2023/12/09 05:41:42;;;;;;;47.45;26.80;;;4.40;75.40;;;;;;4958201;29;20110;-74
2023/12/09 05:44:08;;;;;;;48.47;27.33;;;4.40;75.50;;;;;;4958400;29;20050;-74
2023/12/09 05:46:36;;;;;;;41.90;25.73;;;4.40;75.30;;;;;;4958301;28;20027;-74
2023/12/09 05:49:02;;;;;;;46.97;26.38;;;4.30;75.60;;;;;;4958209;29;20039;-74
2023/12/09 05:51:28;;;;;;;44.20;25.00;;;4.30;75.50;;;;;;4958057;29;20102;-74
2023/12/09 05:53:54;;;;;;;49.92;28.17;;;4.30;75.60;;;;;;4958241;29;20094;-73
2023/12/09 05:56:20;;;;;;;46.50;26.23;;;4.30;75.70;;;;;;4957709;28;20118;-74
2023/12/09 05:58:46;;;;;;;47.17;27.13;;;4.30;75.70;;;;;;4957882;29;20027;-74
2023/12/09 06:01:13;;;;;;;49.20;27.05;;;4.30;75.70;;;;;;4958398;29;20336;-74
2023/12/09 06:03:39;;;;;;;49.20;27.95;;;4.20;75.60;;;;;;4957803;29;20094;-74
2023/12/09 06:06:05;;;;;;;43.83;26.83;;;4.30;75.70;;;;;;4941042;29;20051;-73
2023/12/09 06:08:32;;;;;;;48.42;28.30;;;4.20;75.60;;;;;;4958000;29;20046;-74
2023/12/09 06:10:58;;;;;;;46.53;27.17;;;4.30;75.70;;;;;;4957879;29;20038;-74
2023/12/09 06:13:24;;;;;;;43.50;24.60;;;4.30;75.80;;;;;;4957945;29;20030;-74
2023/12/09 06:15:50;;;;;;;45.17;26.20;;;4.30;75.70;;;;;;4958073;28;20142;-74
2023/12/09 06:18:16;;;;;;;51.10;28.02;;;4.30;75.40;;;;;;4957859;29;20030;-74
2023/12/09 06:20:42;;;;;;;49.25;25.65;;;4.30;75.10;;;;;;4957550;29;20031;-73
2023/12/09 06:23:08;;;;;;;42.40;25.45;;;4.20;74.80;;;;;;4957628;29;20352;-74
2023/12/09 06:25:34;;;;;;;46.58;26.92;;;4.20;74.70;;;;;;4957460;28;20113;-74
2023/12/09 06:28:01;;;;;;;41.85;24.75;;;4.10;74.90;;;;;;4957491;29;20033;-74
2023/12/09 06:30:27;;;;;;;48.95;27.45;;;4.10;74.80;;;;;;4957625;29;20042;-74
2023/12/09 06:32:53;;;;;;;41.15;23.77;;;4.00;74.80;;;;;;4957410;29;20027;-74
2023/12/09 06:35:20;;;;;;;43.58;23.55;;;4.00;74.80;;;;;;4940378;28;20030;-74
2023/12/09 06:37:46;;;;;;;42.35;23.10;;;3.90;75.10;;;;;;4956955;28;20031;-74
2023/12/09 06:40:12;;;;;;;38.10;22.10;;;3.90;75.20;;;;;;4957337;29;20027;-74
2023/12/09 06:42:38;;;;;;;41.95;23.08;;;3.90;75.00;;;;;;4957572;29;20041;-74
2023/12/09 06:45:05;;;;;;;38.53;22.05;;;3.90;75.20;;;;;;4957444;28;20031;-74
2023/12/09 06:47:32;;;;;;;39.85;22.42;;;3.90;75.10;;;;;;4957269;29;20466;-74
2023/12/09 06:49:58;;;;;;;41.03;21.65;;;3.90;75.20;;;;;;4957408;29;20360;-74
2023/12/09 06:52:24;;;;;;;39.13;23.42;;;3.90;75.00;;;;;;4957176;29;20508;-74
2023/12/09 06:54:50;;;;;;;36.75;20.83;;;4.00;75.10;;;;;;4957393;29;20065;-74
2023/12/09 06:57:16;;;;;;;38.90;20.58;;;3.90;75.10;;;;;;4956961;28;20067;-74
2023/12/09 06:59:42;;;;;;;44.22;23.15;;;3.90;74.90;;;;;;4957092;29;20469;-74
2023/12/09 07:02:08;;;;;;;45.20;21.85;;;3.90;74.90;;;;;;4957110;29;20475;-74
2023/12/09 07:04:37;;;;;;;40.42;20.73;;;3.90;75.00;;;;;;4957038;29;20027;-73
2023/12/09 07:07:03;;;;;;;47.33;25.70;;;3.90;75.10;;;;;;4957203;28;20027;-74
2023/12/09 07:09:29;;;;;;;46.63;24.88;;;4.00;75.20;;;;;;4956975;29;20058;-74
2023/12/09 07:11:55;;;;;;;41.75;23.10;;;4.00;75.20;;;;;;4956971;29;20057;-74
2023/12/09 07:14:20;;;;;;;44.38;23.90;;;4.00;75.00;;;;;;4957212;29;20027;-74
2023/12/09 07:16:46;;;;;;;44.13;24.08;;;4.00;74.90;;;;;;4956891;28;20453;-74
2023/12/09 07:19:12;;;;;;;39.75;23.15;;;4.00;74.80;;;;;;4957165;29;20032;-74
2023/12/09 07:21:38;;;;;;;39.72;22.25;;;4.00;74.50;;;;;;4939981;29;20023;-74
2023/12/09 07:24:05;;;;;;;33.15;18.83;;;4.00;74.60;;;;;;4957094;29;20046;-74
2023/12/09 07:26:31;;;;;;;36.78;20.88;;;4.00;74.60;;;;;;4956778;28;20102;-74
2023/12/09 07:28:57;;;;;;;38.92;21.63;;;4.00;74.80;;;;;;4956744;29;20031;-74
2023/12/09 07:31:23;;;;;;;45.03;24.83;;;4.00;75.00;;;;;;4956839;29;20091;-74
2023/12/09 07:33:49;;;;;;;47.92;24.77;;;4.00;75.20;;;;;;4956792;29;20019;-74
2023/12/09 07:36:14;;;;;;;51.17;25.00;;;4.10;75.30;;;;;;4956749;28;20028;-74
2023/12/09 07:38:42;;;;;;;43.78;23.02;;;4.10;75.20;;;;;;4956684;29;20456;-74
2023/12/09 07:41:08;;;;;;;45.63;24.13;;;4.20;75.30;;;;;;4956768;29;20030;-74
2023/12/09 07:43:34;;;;;;;58.58;29.27;;;4.30;75.20;;;;;;4957004;29;20407;-74
2023/12/09 07:46:00;;;;;;;59.80;27.95;;;4.40;75.30;;;;;;4956669;28;20035;-74
2023/12/09 07:48:26;;;;;;;56.95;28.60;;;4.40;75.20;;;;;;4958551;28;20059;-74
2023/12/09 07:50:52;;;;;;;55.85;27.52;;;4.50;75.00;;;;;;4960400;29;20081;-74
2023/12/09 07:53:19;;;;;;;64.80;30.65;;;4.60;75.30;;;;;;4960411;29;20344;-74
2023/12/09 07:55:45;;;;;;;55.88;27.05;;;4.70;75.20;;;;;;4960087;28;20472;-74
2023/12/09 07:58:11;;;;;;;38.22;21.45;;;4.70;75.20;;;;;;4960399;29;20110;-74
2023/12/09 08:00:37;;;;;;;36.33;19.58;;;4.80;75.20;;;;;;4960605;29;20042;-74
2023/12/09 08:03:07;;;;;;;43.03;22.38;;;4.90;75.10;;;;;;4960605;29;20031;-74
2023/12/09 08:05:36;;;;;;;37.33;21.00;;;5.00;75.40;;;;;;4960105;28;20038;-74
2023/12/09 08:08:03;;;;;;;35.75;19.42;;;5.10;75.30;;;;;;4943761;29;20035;-74
2023/12/09 08:10:29;;;;;;;42.85;22.90;;;5.20;75.30;;;;;;4959815;29;20043;-74
2023/12/09 08:12:55;;;;;;;42.92;21.38;;;5.40;75.40;;;;;;4960130;29;20158;-74
2023/12/09 08:15:21;;;;;;;38.90;21.30;;;5.50;75.30;;;;;;4960000;28;20038;-73
2023/12/09 08:17:47;;;;;;;36.97;20.77;;;5.60;75.30;;;;;;4959699;29;20019;-74
2023/12/09 08:20:13;;;;;;;38.10;20.88;;;5.80;75.30;;;;;;4959981;29;20027;-74
2023/12/09 08:22:39;;;;;;;30.63;18.10;;;5.90;74.90;;;;;;4959730;29;20090;-74
2023/12/09 08:25:07;;;;;;;35.33;18.73;;;5.90;74.80;;;;;;4959589;28;20027;-74
2023/12/09 08:27:33;;;;;;;32.40;19.60;;;6.10;74.70;;;;;;4959549;29;20094;-74
2023/12/09 08:29:59;;;;;;;35.88;19.40;;;6.20;74.50;;;;;;4959431;29;20440;-74
2023/12/09 08:32:26;;;;;;;38.03;20.52;;;6.30;74.20;;;;;;4959542;29;20019;-74
2023/12/09 08:34:52;;;;;;;35.97;20.85;;;6.30;73.80;;;;;;4959439;29;20027;-74
2023/12/09 08:37:25;;;;;;;35.70;20.08;;;6.30;73.70;;;;;;4959405;28;20023;-74
2023/12/09 08:39:54;;;;;;;36.30;21.13;;;6.40;73.80;;;;;;4959353;29;20103;-74
2023/12/09 08:42:21;;;;;;;36.47;21.42;;;6.40;73.80;;;;;;4959566;29;20031;-74
2023/12/09 08:44:48;;;;;;;33.40;20.05;;;6.40;73.50;;;;;;4959548;29;20039;-74
2023/12/09 08:47:14;;;;;;;32.97;19.20;;;6.50;73.40;;;;;;4959181;28;20054;-74
2023/12/09 08:49:40;;;;;;;52.20;24.95;;;6.50;73.50;;;;;;4959379;29;20069;-74
2023/12/09 08:52:06;;;;;;;51.15;24.80;;;6.60;73.50;;;;;;4959189;29;20019;-74
2023/12/09 08:54:32;;;;;;;41.75;20.58;;;6.70;73.70;;;;;;4959318;29;20035;-74
2023/12/09 08:56:58;;;;;;;30.90;17.13;;;6.80;73.40;;;;;;4958918;28;20098;-74
2023/12/09 08:59:25;;;;;;;32.17;19.50;;;6.90;73.40;;;;;;4958556;28;20034;-74
2023/12/09 09:01:51;;;;;;;32.53;18.70;;;7.10;73.30;;;;;;4959056;29;20368;-74
2023/12/09 09:04:19;;;;;;;32.47;19.08;;;7.20;72.70;;;;;;4958881;29;20098;-74
2023/12/09 09:06:46;;;;;;;33.38;20.38;;;7.30;72.30;;;;;;4959089;28;20082;-74
2023/12/09 09:09:11;;;;;;;32.85;19.67;;;7.40;72.20;;;;;;5258526;23;20055;-71
2023/12/09 09:11:38;;;;;;;33.72;18.95;;;7.50;72.30;;;;;;4978105;28;20038;-71
2023/12/09 09:14:04;;;;;;;34.13;18.85;;;7.60;71.60;;;;;;4978072;28;20022;-71
2023/12/09 09:16:30;;;;;;;31.52;19.67;;;7.70;72.00;;;;;;4977988;28;20027;-71
2023/12/09 09:18:57;;;;;;;30.75;18.15;;;7.80;71.90;;;;;;4977923;28;20046;-71
2023/12/09 09:21:23;;;;;;;34.88;19.48;;;7.80;71.80;;;;;;4961212;28;20348;-71
2023/12/09 09:23:49;;;;;;;34.20;20.20;;;7.90;71.80;;;;;;4977845;28;20117;-71
2023/12/09 09:26:15;;;;;;;34.03;19.30;;;7.90;71.50;;;;;;4978043;28;20058;-71
2023/12/09 09:28:41;;;;;;;36.75;19.90;;;7.90;71.20;;;;;;4979458;28;20085;-71
2023/12/09 09:31:11;;;;;;;35.45;20.52;;;7.90;70.60;;;;;;4979144;28;20444;-71
2023/12/09 09:33:37;;;;;;;35.65;20.38;;;7.90;70.60;;;;;;4979313;28;20059;-71
2023/12/09 09:36:03;;;;;;;34.47;19.77;;;7.90;70.30;;;;;;4978771;28;20034;-71
2023/12/09 09:38:29;;;;;;;30.60;18.92;;;8.00;70.80;;;;;;4960486;28;20037;-71
2023/12/09 09:40:56;;;;;;;33.50;20.13;;;8.00;71.00;;;;;;4977563;28;20022;-71
2023/12/09 09:43:27;;;;;;;35.00;20.75;;;8.10;70.60;;;;;;4977478;28;20089;-71
2023/12/09 09:45:55;;;;;;;32.90;19.20;;;8.20;70.70;;;;;;4978073;28;20023;-71
2023/12/09 09:48:24;;;;;;;34.60;20.30;;;8.40;70.70;;;;;;4977898;28;20031;-71
2023/12/09 09:50:52;;;;;;;31.75;20.55;;;8.40;70.50;;;;;;4977334;28;20022;-71
2023/12/09 09:53:48;;;;;;;33.42;20.30;;;8.60;70.30;;;;;;4977609;28;20534;-71
2023/12/09 09:56:15;;;;;;;33.17;20.92;;;8.80;70.00;;;;;;4975475;28;20085;-71
2023/12/09 09:58:42;;;;;;;34.03;20.20;;;8.80;69.90;;;;;;4977116;28;20023;-71
2023/12/09 10:01:09;;;;;;;27.95;17.45;;;8.90;69.60;;;;;;4977137;28;20105;-71
2023/12/09 10:03:36;;;;;;;24.10;15.73;;;9.10;69.40;;;;;;4977196;28;20046;-71
2023/12/09 10:06:04;;;;;;;24.67;15.50;;;9.20;69.40;;;;;;4977072;28;20110;-71
2023/12/09 10:08:30;;;;;;;26.38;16.13;;;9.30;69.10;;;;;;4976985;28;20502;-71
2023/12/09 10:10:56;;;;;;;25.90;16.17;;;9.40;68.20;;;;;;4976610;28;20058;-71
2023/12/09 10:13:22;;;;;;;25.30;14.68;;;9.50;67.50;;;;;;4976439;28;20023;-71
2023/12/09 10:15:48;;;;;;;22.38;14.35;;;9.60;67.30;;;;;;4976899;28;20329;-71
2023/12/09 10:18:14;;;;;;;26.17;14.73;;;9.70;66.90;;;;;;4971696;28;20039;-70
2023/12/09 10:20:41;;;;;;;25.52;16.77;;;9.80;67.10;;;;;;4958080;29;20432;-71
2023/12/09 10:25:39;;;;;;;24.88;14.45;;;9.90;66.50;;;;;;4955627;29;20111;-72
2023/12/09 10:28:07;;;;;;;24.73;14.82;;;9.90;66.90;;;;;;4957465;29;20083;-71
2023/12/09 10:30:34;;;;;;;24.02;14.38;;;10.00;65.50;;;;;;4957370;29;20023;-71
2023/12/09 10:33:00;;;;;;;24.55;15.90;;;10.00;65.80;;;;;;4956866;29;20031;-71
2023/12/09 10:35:27;;;;;;;24.58;14.77;;;10.10;65.80;;;;;;4957099;29;20023;-71
2023/12/09 10:38:06;;;;;;;21.88;13.55;;;10.10;64.60;;;;;;5251289;23;20051;-67
2023/12/09 10:40:32;;;;;;;21.95;14.05;;;10.10;65.40;;;;;;4976622;28;20019;-67
2023/12/09 10:42:58;;;;;;;20.42;13.13;;;10.20;65.20;;;;;;4977160;28;20031;-66
2023/12/09 10:45:24;;;;;;;19.95;12.52;;;10.30;65.40;;;;;;4976571;28;20034;-67
2023/12/09 10:47:50;;;;;;;20.17;12.57;;;10.30;64.70;;;;;;4976612;28;20023;-66
2023/12/09 10:50:16;;;;;;;21.73;13.50;;;10.40;64.70;;;;;;4959418;28;20468;-67
2023/12/09 10:52:42;;;;;;;20.60;12.77;;;10.40;64.30;;;;;;4976509;28;20027;-68
2023/12/09 10:55:09;;;;;;;20.25;12.57;;;10.40;63.80;;;;;;4976727;28;20101;-66
2023/12/09 10:57:37;;;;;;;18.80;11.52;;;10.50;63.50;;;;;;4976901;28;20344;-66
2023/12/09 11:00:10;;;;;;;21.75;12.27;;;10.50;64.00;;;;;;4976404;28;20052;-66
2023/12/09 11:02:40;;;;;;;21.40;12.50;;;10.60;63.90;;;;;;4976670;28;20046;-66
2023/12/09 11:05:09;;;;;;;20.48;12.35;;;10.60;63.90;;;;;;4976248;28;20436;-66
2023/12/09 11:07:39;;;;;;;22.33;13.05;;;10.70;63.90;;;;;;4976277;28;20033;-66
2023/12/09 11:10:09;;;;;;;19.88;13.02;;;10.80;63.00;;;;;;4976149;28;20077;-68
2023/12/09 11:12:38;;;;;;;20.48;12.77;;;10.80;62.80;;;;;;4959174;28;20030;-66
2023/12/09 11:15:19;;;;;;;20.27;12.93;;;10.90;62.50;;;;;;4976221;28;20110;-66
2023/12/09 11:17:47;;;;;;;22.33;13.60;;;10.90;62.90;;;;;;4976084;28;20110;-66
2023/12/09 11:20:19;;;;;;;22.50;14.63;;;10.90;62.70;;;;;;4976156;28;20086;-66
2023/12/09 11:22:52;;;;;;;21.27;12.75;;;11.00;62.80;;;;;;4976702;28;20041;-66
2023/12/09 11:25:23;;;;;;;23.13;13.27;;;11.10;63.10;;;;;;4980481;28;20033;-66
2023/12/09 11:27:50;;;;;;;23.63;15.38;;;11.10;63.20;;;;;;4979683;28;20448;-68
2023/12/09 11:30:34;;;;;;;25.17;15.52;;;11.20;62.00;;;;;;4979768;28;20436;-66
2023/12/09 11:33:03;;;;;;;23.75;14.38;;;11.20;62.50;;;;;;4979845;28;20074;-66
2023/12/09 11:35:33;;;;;;;22.40;13.38;;;11.30;62.00;;;;;;4980042;28;20023;-66
2023/12/09 11:38:00;;;;;;;24.27;14.73;;;11.30;62.20;;;;;;4979596;28;20074;-68
2023/12/09 11:40:30;;;;;;;26.10;15.57;;;11.40;62.40;;;;;;4979683;28;20034;-68
2023/12/09 11:42:58;;;;;;;24.30;14.95;;;11.40;62.50;;;;;;4979683;28;20348;-68
2023/12/09 11:45:24;;;;;;;25.60;16.50;;;11.40;62.50;;;;;;4979731;28;20030;-66
2023/12/09 11:47:52;;;;;;;26.15;16.55;;;11.50;62.60;;;;;;4979552;28;20027;-68
2023/12/09 11:50:19;;;;;;;25.63;14.93;;;11.60;62.50;;;;;;4980028;28;20047;-66
2023/12/09 11:52:46;;;;;;;25.10;16.20;;;11.60;62.40;;;;;;4979387;28;20141;-68
2023/12/09 11:55:15;;;;;;;27.70;15.93;;;11.60;61.80;;;;;;4979650;28;20038;-66
2023/12/09 11:57:41;;;;;;;29.77;17.50;;;11.70;62.30;;;;;;4979328;28;20030;-66
2023/12/09 12:00:14;;;;;;;28.92;17.65;;;11.70;62.20;;;;;;4979603;28;20037;-69
2023/12/09 12:02:45;;;;;;;28.58;17.60;;;11.70;61.70;;;;;;4979867;28;20367;-68
2023/12/09 12:05:11;;;;;;;29.23;19.30;;;11.70;61.90;;;;;;4979240;28;20372;-66
2023/12/09 12:07:39;;;;;;;28.63;18.67;;;11.70;62.00;;;;;;4979215;28;20098;-68
2023/12/09 12:10:09;;;;;;;28.55;19.52;;;11.70;62.80;;;;;;4979644;28;20041;-68
2023/12/09 12:12:36;;;;;;;30.00;19.48;;;11.70;62.80;;;;;;4979338;28;20030;-66
2023/12/09 12:15:02;;;;;;;30.38;19.75;;;11.70;62.20;;;;;;4979662;28;20054;-66
2023/12/09 12:17:40;;;;;;;31.48;19.08;;;11.70;61.00;;;;;;4979290;28;20023;-66
2023/12/09 12:20:09;;;;;;;30.08;19.00;;;11.70;61.90;;;;;;4962062;28;20031;-66
2023/12/09 12:22:35;;;;;;;30.00;19.88;;;11.60;61.00;;;;;;4978904;28;20420;-66
2023/12/09 12:25:04;;;;;;;30.42;20.00;;;11.60;60.70;;;;;;4979542;28;20030;-67
2023/12/09 12:30:03;;;;;;;32.47;21.20;;;11.50;62.40;;;;;;5279567;23;20051;-67
2023/12/09 12:32:35;;;;;;;36.28;22.13;;;11.40;61.90;;;;;;4978794;28;20041;-70
2023/12/09 12:35:08;;;;;;;35.15;22.58;;;11.40;62.40;;;;;;4977773;28;20497;-68
2023/12/09 12:37:34;;;;;;;30.75;21.17;;;11.40;62.40;;;;;;4978976;28;20098;-68
2023/12/09 12:40:00;;;;;;;30.92;20.67;;;11.30;62.20;;;;;;4978686;28;20026;-69